createdAt,value
2023-02-22T00:00:44.360Z,40.77
2023-02-22T00:05:53.660Z,42.83
2023-02-22T00:10:59.303Z,38.70
2023-02-22T00:16:03.409Z,41.97
2023-02-22T00:21:10.584Z,40.70
2023-02-22T00:26:20.402Z,41.50
2023-02-22T00:31:22.634Z,43.23
2023-02-22T00:36:25.273Z,45.07
2023-02-22T00:41:35.165Z,43.77
2023-02-22T00:46:40.880Z,44.03
2023-02-22T00:51:42.974Z,44.73
2023-02-22T00:56:47.021Z,44.07
2023-02-22T01:01:51.181Z,41.27
2023-02-22T01:06:57.106Z,42.90
2023-02-22T01:12:05.460Z,45.67
2023-02-22T01:17:10.189Z,43.87
2023-02-22T01:22:12.191Z,47.43
2023-02-22T01:27:14.910Z,44.70
2023-02-22T01:32:18.927Z,45.77
2023-02-22T01:37:20.709Z,45.70
2023-02-22T01:42:24.766Z,48.37
2023-02-22T01:47:28.684Z,47.77
2023-02-22T01:52:30.409Z,44.17
2023-02-22T01:57:36.920Z,42.27
2023-02-22T02:02:49.503Z,49.07
2023-02-22T02:07:58.120Z,46.80
2023-02-22T02:13:04.010Z,44.90
2023-02-22T02:18:10.752Z,48.80
2023-02-22T02:23:51.344Z,47.60
2023-02-22T02:29:11.454Z,46.93
2023-02-22T02:34:22.623Z,48.70
2023-02-22T02:39:39.604Z,49.23
2023-02-22T02:44:47.850Z,50.00
2023-02-22T02:50:01.997Z,50.33
2023-02-22T02:55:07.738Z,52.23
2023-02-22T03:00:22.478Z,52.10
2023-02-22T03:05:44.593Z,51.50
2023-02-22T03:11:04.555Z,54.30
2023-02-22T03:16:30.191Z,52.70
2023-02-22T03:21:36.202Z,52.27
2023-02-22T03:26:45.534Z,52.70
2023-02-22T03:31:55.444Z,56.33
2023-02-22T03:37:04.469Z,51.20
2023-02-22T03:42:12.229Z,54.60
2023-02-22T03:47:19.076Z,54.97
2023-02-22T03:52:23.575Z,51.87
2023-02-22T03:57:28.436Z,52.40
2023-02-22T04:02:41.252Z,52.87
2023-02-22T04:07:46.788Z,56.27
2023-02-22T04:12:50.918Z,51.53
2023-02-22T04:17:55.197Z,47.77
2023-02-22T04:23:01.433Z,48.60
2023-02-22T04:28:07.859Z,49.30
2023-02-22T04:33:19.268Z,48.87
2023-02-22T04:38:21.468Z,49.50
2023-02-22T04:43:25.848Z,45.97
2023-02-22T04:48:35.010Z,47.43
2023-02-22T04:53:39.272Z,45.40
2023-02-22T04:58:44.432Z,46.00
2023-02-22T05:03:46.308Z,48.70
2023-02-22T05:08:54.743Z,49.17
2023-02-22T05:13:56.445Z,46.07
2023-02-22T05:19:02.509Z,46.40
2023-02-22T05:24:06.022Z,50.40
2023-02-22T05:29:07.777Z,54.50
2023-02-22T05:34:09.493Z,54.53
2023-02-22T05:39:13.555Z,53.03
2023-02-22T05:44:17.788Z,51.87
2023-02-22T05:49:22.255Z,51.30
2023-02-22T05:54:27.843Z,50.00
2023-02-22T05:59:30.261Z,54.40
2023-02-22T06:04:37.703Z,50.97
2023-02-22T06:09:46.460Z,49.57
2023-02-22T06:14:48.108Z,43.40
2023-02-22T06:19:49.853Z,44.80
2023-02-22T06:24:55.108Z,48.67
2023-02-22T06:29:57.875Z,47.90
2023-02-22T06:35:02.953Z,45.80
2023-02-22T06:40:05.888Z,49.07
2023-02-22T06:45:11.064Z,48.47
2023-02-22T06:50:24.880Z,45.13
2023-02-22T06:55:31.760Z,46.30
2023-02-22T07:00:36.270Z,45.00
2023-02-22T07:05:39.865Z,43.50
2023-02-22T07:10:41.688Z,48.77
2023-02-22T07:15:48.354Z,42.67
2023-02-22T07:20:50.407Z,45.97
2023-02-22T07:25:57.695Z,46.27
2023-02-22T07:31:01.512Z,44.97
2023-02-22T07:36:08.259Z,48.20
2023-02-22T07:41:12.214Z,44.37
2023-02-22T07:46:13.973Z,46.70
2023-02-22T07:51:20.901Z,43.07
2023-02-22T07:56:25.786Z,40.07
2023-02-22T08:01:32.359Z,41.27
2023-02-22T08:06:34.555Z,39.20
2023-02-22T08:11:40.088Z,39.17
2023-02-22T08:16:42.754Z,38.53
2023-02-22T08:21:44.765Z,36.97
2023-02-22T08:26:50.116Z,40.00
2023-02-22T08:31:55.394Z,38.67
2023-02-22T08:36:58.260Z,36.57
2023-02-22T08:42:00.525Z,37.77
2023-02-22T08:47:03.910Z,35.67
2023-02-22T08:52:12.695Z,32.83
2023-02-22T08:57:17.442Z,32.77
2023-02-22T09:02:22.811Z,32.93
2023-02-22T09:07:31.299Z,29.97
2023-02-22T09:12:35.840Z,32.57
2023-02-22T09:17:42.179Z,30.17
2023-02-22T09:22:51.117Z,29.63
2023-02-22T09:28:07.750Z,29.83
2023-02-22T09:33:22.878Z,26.80
2023-02-22T09:38:26.458Z,25.50
2023-02-22T09:43:42.125Z,26.57
2023-02-22T09:49:09.974Z,25.93
2023-02-22T09:54:26.470Z,25.83
2023-02-22T09:59:46.555Z,23.67
2023-02-22T10:05:09.020Z,24.67
2023-02-22T10:10:24.117Z,23.23
2023-02-22T10:15:37.277Z,21.57
2023-02-22T10:20:53.503Z,22.27
2023-02-22T10:26:16.511Z,22.73
2023-02-22T10:31:34.566Z,23.10
2023-02-22T10:36:39.142Z,25.10
2023-02-22T10:41:53.016Z,27.20
2023-02-22T10:46:58.659Z,28.65
2023-02-22T10:52:03.641Z,28.40
2023-02-22T10:57:05.577Z,25.47
2023-02-22T11:02:20.533Z,23.53
2023-02-22T11:07:32.716Z,25.90
2023-02-22T11:12:37.775Z,23.37
2023-02-22T11:17:41.097Z,22.93
2023-02-22T11:22:44.229Z,23.13
2023-02-22T11:27:48.876Z,26.47
2023-02-22T11:32:58.086Z,24.67
2023-02-22T11:38:16.219Z,24.90
2023-02-22T11:43:19.599Z,23.27
2023-02-22T11:48:25.587Z,23.17
2023-02-22T11:53:45.639Z,23.27
2023-02-22T11:58:55.408Z,21.23
2023-02-22T12:04:33.341Z,21.87
2023-02-22T12:09:41.032Z,21.20
2023-02-22T12:14:55.507Z,22.20
2023-02-22T12:20:06.968Z,22.00
2023-02-22T12:25:29.497Z,20.47
2023-02-22T12:30:38.713Z,21.93
2023-02-22T12:35:49.476Z,21.83
2023-02-22T12:40:54.484Z,21.83
2023-02-22T12:45:59.625Z,22.80
2023-02-22T12:51:19.284Z,22.30
2023-02-22T12:56:34.749Z,24.03
2023-02-22T13:01:43.242Z,24.13
2023-02-22T13:06:52.822Z,23.57
2023-02-22T13:12:02.933Z,22.95
2023-02-22T13:17:38.231Z,25.53
2023-02-22T13:22:52.410Z,24.27
2023-02-22T13:28:07.205Z,24.90
2023-02-22T13:33:25.730Z,24.33
2023-02-22T13:39:08.262Z,23.00
2023-02-22T13:44:35.307Z,25.08
2023-02-22T13:50:02.487Z,25.65
2023-02-22T13:55:11.332Z,23.20
2023-02-22T14:00:37.165Z,23.05
2023-02-22T14:05:42.429Z,22.05
2023-02-22T14:10:52.667Z,23.23
2023-02-22T14:16:00.604Z,23.23
2023-02-22T14:21:07.880Z,23.05
2023-02-22T14:26:20.518Z,22.42
2023-02-22T14:31:37.691Z,22.48
2023-02-22T14:36:50.905Z,22.77
2023-02-22T14:42:04.147Z,22.42
2023-02-22T14:47:08.710Z,21.58
2023-02-22T14:52:28.520Z,22.63
2023-02-22T14:57:48.441Z,21.95
2023-02-22T15:02:57.249Z,23.20
2023-02-22T15:08:03.564Z,22.35
2023-02-22T15:13:15.611Z,23.73
2023-02-22T15:18:23.438Z,23.25
2023-02-22T15:23:41.676Z,22.92
2023-02-22T15:28:45.826Z,24.75
2023-02-22T15:33:53.552Z,23.33
2023-02-22T15:38:55.904Z,25.63
2023-02-22T15:44:22.653Z,24.48
2023-02-22T15:49:36.609Z,23.13
2023-02-22T15:54:43.937Z,28.58
2023-02-22T15:59:54.727Z,24.23
2023-02-22T16:05:06.565Z,24.25
2023-02-22T16:10:29.913Z,24.47
2023-02-22T16:15:35.478Z,23.43
2023-02-22T16:20:37.737Z,25.87
2023-02-22T16:25:44.134Z,27.93
2023-02-22T16:30:59.135Z,27.77
2023-02-22T16:36:05.984Z,27.33
2023-02-22T16:41:09.955Z,25.67
2023-02-22T16:46:15.033Z,29.27
2023-02-22T16:51:27.108Z,28.67
2023-02-22T16:56:35.397Z,28.63
2023-02-22T17:01:39.421Z,27.43
2023-02-22T17:06:41.259Z,30.40
2023-02-22T17:11:46.277Z,32.47
2023-02-22T17:16:48.036Z,33.80
2023-02-22T17:21:50.463Z,32.40
2023-02-22T17:26:57.401Z,31.60
2023-02-22T17:31:59.300Z,33.43
2023-02-22T17:37:06.180Z,30.97
2023-02-22T17:42:10.626Z,30.90
2023-02-22T17:47:12.602Z,35.17
2023-02-22T17:52:15.979Z,31.93
2023-02-22T17:57:20.175Z,30.77
2023-02-22T18:02:25.595Z,32.53
2023-02-22T18:07:27.477Z,29.67
2023-02-22T18:12:30.020Z,31.40
2023-02-22T18:17:34.341Z,33.60
2023-02-22T18:22:38.628Z,28.20
2023-02-22T18:27:44.851Z,30.33
2023-02-22T18:32:49.153Z,32.50
2023-02-22T18:37:53.564Z,38.70
2023-02-22T18:43:01.803Z,58.10
2023-02-22T18:48:05.947Z,38.30
2023-02-22T18:53:12.397Z,40.37
2023-02-22T18:58:19.770Z,37.90
2023-02-22T19:03:29.554Z,34.10
2023-02-22T19:08:39.768Z,32.00
2023-02-22T19:13:41.906Z,32.27
2023-02-22T19:18:44.391Z,30.00
2023-02-22T19:23:46.445Z,34.47
2023-02-22T19:28:53.005Z,34.33
2023-02-22T19:34:00.665Z,39.27
2023-02-22T19:39:09.251Z,38.47
2023-02-22T19:44:20.233Z,33.33
2023-02-22T19:49:27.890Z,38.97
2023-02-22T19:54:29.975Z,37.33
2023-02-22T19:59:41.563Z,38.87
2023-02-22T20:04:53.050Z,36.13
2023-02-22T20:10:00.011Z,35.43
2023-02-22T20:15:11.913Z,37.87
2023-02-22T20:20:18.160Z,39.20
2023-02-22T20:25:30.049Z,39.60
2023-02-22T20:30:45.647Z,37.73
2023-02-22T20:35:53.739Z,41.43
2023-02-22T20:41:11.275Z,39.73
2023-02-22T20:46:15.952Z,41.00
2023-02-22T20:51:20.755Z,37.87
2023-02-22T20:56:33.271Z,37.93
2023-02-22T21:01:36.554Z,38.70
2023-02-22T21:06:45.891Z,41.50
2023-02-22T21:11:50.296Z,34.67
2023-02-22T21:16:59.911Z,38.13
2023-02-22T21:22:09.340Z,38.43
2023-02-22T21:27:15.229Z,39.07
2023-02-22T21:32:20.551Z,37.73
2023-02-22T21:37:23.429Z,39.43
2023-02-22T21:42:31.094Z,36.03
2023-02-22T21:47:35.869Z,36.97
2023-02-22T21:52:40.372Z,39.03
2023-02-22T21:57:43.199Z,40.20
2023-02-22T22:02:48.269Z,32.73
2023-02-22T22:07:57.308Z,36.90
2023-02-22T22:12:59.643Z,32.13
2023-02-22T22:18:06.638Z,32.50
2023-02-22T22:23:12.604Z,35.30
2023-02-22T22:28:14.417Z,34.33
2023-02-22T22:33:17.813Z,38.80
2023-02-22T22:38:20.764Z,33.73
2023-02-22T22:43:22.475Z,38.00
2023-02-22T22:48:25.225Z,32.63
2023-02-22T22:53:32.520Z,38.07
2023-02-22T22:58:35.198Z,37.00
2023-02-22T23:03:39.286Z,39.73
2023-02-22T23:08:44.023Z,37.67
2023-02-22T23:13:50.194Z,42.80
2023-02-22T23:18:54.226Z,39.97
2023-02-22T23:24:00.037Z,38.73
2023-02-22T23:29:03.729Z,37.60
2023-02-22T23:34:11.181Z,41.83
2023-02-22T23:39:20.597Z,40.30
2023-02-22T23:44:27.092Z,40.17
2023-02-22T23:49:38.108Z,41.27
2023-02-22T23:54:43.847Z,41.47
2023-02-22T23:59:51.373Z,40.23
